CheckWX is a tool to help pilots better visualize weather data.  It is not intended as a substitute for an official pre-flight weather briefing.

09:24:46 UTC

KFLL TAF
Fort Lauderdale / Hollywood International Airport
Fort Lauderdale, Florida, USA
KFLL 230852Z 2309/2412 05012KT P6SM SCT030 BKN040 FM231800 05015KT P6SM SCT050 SCT250 FM240200 06012KT P6SM SCT025 BKN050 FM240700 03008KT P6SM FEW020 SCT050

Sep-23@
09:00 UTC

Sep-23 @ 09:00 UTC

Sep-23@
18:00 UTC

Sep-23 @ 18:00 UTC

KFLL 230852Z 2309/2412 05012KT P6SM SCT030 BKN040
Wind
  • 050° at 12 KTS
Cloud Levels
  • Scattered at 3,000' AGL
  • Broken at 4,000' AGL

Sep-23@
18:00 UTC

Sep-23 @ 18:00 UTC

Sep-24@
02:00 UTC

Sep-24 @ 02:00 UTC

FM231800 05015KT P6SM SCT050 SCT250

From

From Standard forecast or significant change

Wind
  • 050° at 15 KTS
Cloud Levels
  • Scattered at 5,000' AGL
  • Scattered at 25,000' AGL

Sep-24@
02:00 UTC

Sep-24 @ 02:00 UTC

Sep-24@
07:00 UTC

Sep-24 @ 07:00 UTC

FM240200 06012KT P6SM SCT025 BKN050

From

From Standard forecast or significant change

Wind
  • 060° at 12 KTS
Cloud Levels
  • Scattered at 2,500' AGL
  • Broken at 5,000' AGL

Sep-24@
07:00 UTC

Sep-24 @ 07:00 UTC

Sep-24@
12:00 UTC

Sep-24 @ 12:00 UTC

FM240700 03008KT P6SM FEW020 SCT050

From

From Standard forecast or significant change

Wind
  • 030° at 8 KTS
Cloud Levels
  • Few at 2,000' AGL
  • Scattered at 5,000' AGL